To NAV CANADA Home Page Login to a new session Search on AWWS site Feedback and Comments Disclaimer Vers la page française équivalente Tips FAQ What's new on the site To the Forecasts and Observations / NOTAM section To "File a Flight Plan" website Publications and other links Update of the User's profile FIC Telephone Numbers My Weather Data Folder Route Weather Data Regional Weather Data Local Weather Data To the Forecasts and Observations / NOTAM section
Request Generated 02/12/2016 at 20:13:47 UTC . Weather information available at that time is displayed.

METAR/TAF

PRINCE ALBERT (GLASS FIELD)/SK    

METAR CYPA 122000Z 10007KT 15SM SCT220 M22/M26 A3060 RMK CI3 SLP418=
METAR CYPA 121900Z 13005KT 100V170 15SM SCT220 M23/M26 A3063 RMK CI3
SLP427=
METAR CYPA 121800Z 13006KT 15SM BKN220 M24/M27 A3064 RMK CI5 SLP430=

TAF CYPA 121838Z 1219/1307 12006KT P6SM BKN220
RMK NXT FCST BY 130100Z=
Your time UTC time
Weather data provided by Environment Canada and NAV CANADA